createdAt,value
2022-10-31T00:00:30.001Z,19.20
2022-10-31T00:05:32.407Z,19.30
2022-10-31T00:10:34.662Z,19.20
2022-10-31T00:15:38.088Z,19.20
2022-10-31T00:20:40.831Z,19.30
2022-10-31T00:25:43.114Z,19.30
2022-10-31T00:30:45.381Z,19.20
2022-10-31T00:35:51.669Z,19.20
2022-10-31T00:40:53.989Z,19.40
2022-10-31T00:45:56.311Z,19.30
2022-10-31T00:51:00.591Z,19.30
2022-10-31T00:56:03.474Z,19.40
2022-10-31T01:01:06.301Z,19.30
2022-10-31T01:06:12.780Z,19.40
2022-10-31T01:11:16.384Z,19.20
2022-10-31T01:16:20.068Z,19.10
2022-10-31T01:21:28.707Z,19.10
2022-10-31T01:26:34.573Z,19.30
2022-10-31T01:31:39.338Z,19.20
2022-10-31T01:36:41.826Z,19.10
2022-10-31T01:41:49.135Z,18.90
2022-10-31T01:47:14.468Z,18.90
2022-10-31T01:52:38.460Z,19.00
2022-10-31T01:57:46.108Z,18.90
2022-10-31T02:02:50.381Z,18.90
2022-10-31T02:07:58.049Z,18.90
2022-10-31T02:13:07.960Z,18.80
2022-10-31T02:18:15.770Z,18.70
2022-10-31T02:23:40.355Z,18.60
2022-10-31T02:29:16.964Z,18.40
2022-10-31T02:34:46.665Z,18.50
2022-10-31T02:39:54.977Z,18.60
2022-10-31T02:45:33.919Z,18.70
2022-10-31T02:50:41.258Z,18.60
2022-10-31T02:55:52.055Z,18.30
2022-10-31T03:01:20.350Z,18.20
2022-10-31T03:06:26.587Z,18.30
2022-10-31T03:11:46.448Z,18.20
2022-10-31T03:16:56.820Z,18.30
2022-10-31T03:22:24.395Z,18.10
2022-10-31T03:27:29.819Z,18.00
2022-10-31T03:32:43.930Z,18.10
2022-10-31T03:37:48.605Z,18.00
2022-10-31T03:43:03.515Z,17.90
2022-10-31T03:48:08.885Z,17.70
2022-10-31T03:53:17.568Z,18.00
2022-10-31T03:58:33.546Z,17.90
2022-10-31T04:03:38.495Z,17.80
2022-10-31T04:09:04.088Z,17.90
2022-10-31T04:14:07.930Z,17.70
2022-10-31T04:19:13.080Z,17.70
2022-10-31T04:24:15.990Z,17.60
2022-10-31T04:29:18.380Z,17.50
2022-10-31T04:34:20.684Z,17.60
2022-10-31T04:39:26.732Z,17.20
2022-10-31T04:44:52.005Z,17.30
2022-10-31T04:49:55.098Z,17.40
2022-10-31T04:54:57.658Z,17.40
2022-10-31T05:00:26.156Z,16.70
2022-10-31T05:05:31.073Z,17.30
2022-10-31T05:10:35.810Z,17.40
2022-10-31T05:15:39.348Z,17.40
2022-10-31T05:21:00.613Z,17.40
2022-10-31T05:26:10.775Z,17.30
2022-10-31T05:31:13.300Z,16.90
2022-10-31T05:36:17.391Z,17.20
2022-10-31T05:41:33.185Z,17.00
2022-10-31T05:46:41.096Z,17.10
2022-10-31T05:52:15.677Z,17.00
2022-10-31T05:57:26.840Z,17.00
2022-10-31T06:02:33.128Z,16.60
2022-10-31T06:07:56.739Z,16.70
2022-10-31T06:12:59.756Z,16.40
2022-10-31T06:18:16.861Z,16.40
2022-10-31T06:23:24.575Z,16.20
2022-10-31T06:28:34.488Z,16.10
2022-10-31T06:33:48.405Z,15.70
2022-10-31T06:38:50.771Z,15.90
2022-10-31T06:43:56.777Z,15.70
2022-10-31T06:49:17.738Z,15.70
2022-10-31T06:54:29.005Z,15.20
2022-10-31T06:59:31.750Z,14.90
2022-10-31T07:04:54.405Z,14.80
2022-10-31T07:09:56.744Z,15.20
2022-10-31T07:15:15.754Z,15.40
2022-10-31T07:20:19.674Z,15.50
2022-10-31T07:25:24.057Z,15.20
2022-10-31T07:30:41.557Z,14.80
2022-10-31T07:35:44.562Z,14.60
2022-10-31T07:40:53.744Z,14.60
2022-10-31T07:45:56.400Z,14.50
2022-10-31T07:51:18.895Z,14.70
2022-10-31T07:56:40.203Z,14.50
2022-10-31T08:01:42.739Z,14.70
2022-10-31T08:07:03.828Z,14.90
2022-10-31T08:12:10.591Z,14.40
2022-10-31T08:17:13.527Z,14.80
2022-10-31T08:22:22.706Z,14.80
2022-10-31T08:27:25.432Z,14.60
2022-10-31T08:32:29.782Z,14.30
2022-10-31T08:38:04.598Z,14.40
2022-10-31T08:43:14.881Z,14.40
2022-10-31T08:48:18.293Z,14.50
2022-10-31T08:53:20.933Z,14.70
2022-10-31T08:58:36.378Z,14.80
2022-10-31T09:03:42.720Z,14.70
2022-10-31T09:08:46.383Z,14.70
2022-10-31T09:13:48.830Z,14.80
2022-10-31T09:19:00.055Z,14.80
2022-10-31T09:24:02.684Z,15.10
2022-10-31T09:29:05.539Z,15.40
2022-10-31T09:34:08.199Z,15.60
2022-10-31T09:39:13.371Z,15.60
2022-10-31T09:44:44.954Z,15.60
2022-10-31T09:50:07.522Z,15.60
2022-10-31T09:55:20.079Z,15.70
2022-10-31T10:00:23.407Z,15.70
2022-10-31T10:05:40.180Z,15.70
2022-10-31T10:11:13.594Z,15.80
2022-10-31T10:17:00.202Z,15.80
2022-10-31T10:22:28.532Z,16.30
2022-10-31T10:27:48.227Z,16.30
2022-10-31T10:32:58.508Z,16.80
2022-10-31T10:38:19.909Z,16.80
2022-10-31T10:43:31.892Z,19.30
2022-10-31T10:49:05.932Z,16.90
2022-10-31T10:54:34.249Z,16.90
2022-10-31T10:59:36.549Z,16.90
2022-10-31T11:04:41.792Z,16.90
2022-10-31T11:09:44.594Z,17.10
2022-10-31T11:14:53.983Z,17.10
2022-10-31T11:20:18.013Z,17.40
2022-10-31T11:25:26.256Z,17.50
2022-10-31T11:30:29.608Z,17.60
2022-10-31T11:35:31.948Z,17.70
2022-10-31T11:40:34.393Z,17.70
2022-10-31T11:45:37.748Z,17.70
2022-10-31T11:50:42.836Z,17.80
2022-10-31T11:55:46.428Z,17.80
2022-10-31T12:00:55.310Z,17.80
2022-10-31T12:06:06.149Z,17.90
2022-10-31T12:11:43.747Z,18.20
2022-10-31T12:16:51.809Z,18.10
2022-10-31T12:22:00.004Z,18.20
2022-10-31T12:27:36.996Z,18.00
2022-10-31T12:32:50.925Z,17.70
2022-10-31T12:38:05.857Z,17.70
2022-10-31T12:43:35.522Z,17.40
2022-10-31T12:49:01.549Z,17.60
2022-10-31T12:54:20.726Z,17.70
2022-10-31T12:59:29.496Z,17.70
2022-10-31T13:04:36.533Z,17.70
2022-10-31T13:09:54.241Z,17.80
2022-10-31T13:14:59.859Z,17.90
2022-10-31T13:20:23.832Z,17.90
2022-10-31T13:25:31.093Z,17.90
2022-10-31T13:30:37.493Z,17.90
2022-10-31T13:35:51.336Z,17.70
2022-10-31T13:41:03.145Z,17.60
2022-10-31T13:46:31.620Z,17.50
2022-10-31T13:51:36.048Z,17.20
2022-10-31T13:56:40.693Z,17.30
2022-10-31T14:02:02.638Z,17.30
2022-10-31T14:07:14.170Z,17.10
2022-10-31T14:12:38.083Z,17.20
2022-10-31T14:17:48.974Z,17.30
2022-10-31T14:22:51.598Z,17.30
2022-10-31T14:27:55.730Z,17.20
2022-10-31T14:33:18.229Z,17.20
2022-10-31T14:38:29.596Z,17.30
2022-10-31T14:44:04.318Z,17.20
2022-10-31T14:49:32.699Z,17.30
2022-10-31T14:54:40.718Z,17.10
2022-10-31T14:59:50.172Z,17.20
2022-10-31T15:04:54.405Z,17.20
2022-10-31T15:10:05.749Z,17.20
2022-10-31T15:15:24.488Z,17.10
2022-10-31T15:20:29.283Z,17.00
2022-10-31T15:25:35.324Z,17.00
2022-10-31T15:30:37.650Z,17.00
2022-10-31T15:35:39.984Z,17.00
2022-10-31T15:40:54.672Z,17.20
2022-10-31T15:45:58.617Z,17.20
2022-10-31T15:51:01.334Z,17.20
2022-10-31T15:56:07.894Z,17.20
2022-10-31T16:01:31.629Z,17.30
2022-10-31T16:06:35.372Z,17.90
2022-10-31T16:11:39.545Z,18.10
2022-10-31T16:16:53.360Z,18.20
2022-10-31T16:22:19.648Z,18.20
2022-10-31T16:27:30.081Z,18.20
2022-10-31T16:32:38.510Z,18.00
2022-10-31T16:37:42.432Z,17.60
2022-10-31T16:42:46.343Z,17.90
2022-10-31T16:47:49.444Z,18.10
2022-10-31T16:53:12.400Z,18.20
2022-10-31T16:58:22.386Z,18.30
2022-10-31T17:03:24.780Z,18.50
2022-10-31T17:08:27.198Z,18.40
2022-10-31T17:13:32.235Z,18.40
2022-10-31T17:18:34.537Z,18.40
2022-10-31T17:23:38.151Z,18.30
2022-10-31T17:28:40.660Z,18.00
2022-10-31T17:33:43.161Z,17.90
2022-10-31T17:38:45.520Z,17.80
2022-10-31T17:43:47.929Z,17.60
2022-10-31T17:48:50.378Z,17.60
2022-10-31T17:53:52.661Z,17.40
2022-10-31T17:58:57.108Z,17.70
2022-10-31T18:03:59.488Z,17.50
2022-10-31T18:09:05.835Z,17.30
2022-10-31T18:14:09.391Z,17.10
2022-10-31T18:19:13.563Z,17.10
2022-10-31T18:24:15.838Z,16.90
2022-10-31T18:29:18.297Z,17.00
2022-10-31T18:34:20.738Z,16.90
2022-10-31T18:39:23.048Z,16.60
2022-10-31T18:44:25.706Z,16.50
2022-10-31T18:49:32.458Z,16.40
2022-10-31T18:54:34.712Z,16.60
2022-10-31T18:59:37.130Z,16.40
2022-10-31T19:04:39.459Z,16.50
2022-10-31T19:09:41.731Z,16.70
2022-10-31T19:14:44.049Z,16.90
2022-10-31T19:19:46.355Z,16.60
2022-10-31T19:24:48.689Z,16.40
2022-10-31T19:29:50.980Z,15.90
2022-10-31T19:34:53.269Z,15.90
2022-10-31T19:39:55.548Z,16.20
2022-10-31T19:44:57.781Z,15.90
2022-10-31T19:50:00.055Z,16.00
2022-10-31T19:55:02.814Z,16.00
2022-10-31T20:00:05.918Z,16.30
2022-10-31T20:05:13.935Z,16.10
2022-10-31T20:10:16.674Z,16.20
2022-10-31T20:15:18.955Z,16.30
2022-10-31T20:20:21.279Z,16.60
2022-10-31T20:25:23.553Z,16.70
2022-10-31T20:30:26.313Z,16.80
2022-10-31T20:35:28.593Z,16.80
2022-10-31T20:40:31.728Z,16.80
2022-10-31T20:45:34.120Z,16.80
2022-10-31T20:50:39.200Z,16.80
2022-10-31T20:55:41.560Z,16.90
2022-10-31T21:00:43.899Z,16.90
2022-10-31T21:06:13.017Z,17.00
2022-10-31T21:11:18.221Z,17.00
2022-10-31T21:16:26.174Z,17.10
2022-10-31T21:21:32.778Z,17.10
2022-10-31T21:26:39.851Z,17.20
2022-10-31T21:31:43.154Z,17.20
2022-10-31T21:36:45.557Z,17.30
2022-10-31T21:46:52.030Z,17.30
2022-10-31T21:51:54.315Z,17.50
2022-10-31T21:56:58.076Z,17.50
2022-10-31T22:02:01.272Z,17.50
2022-10-31T22:07:03.879Z,17.60
2022-10-31T22:12:08.938Z,17.70
2022-10-31T22:17:11.426Z,17.70
2022-10-31T22:22:13.719Z,17.70
2022-10-31T22:27:15.959Z,17.80
2022-10-31T22:32:18.212Z,17.80
2022-10-31T22:37:20.466Z,17.90
2022-10-31T22:42:22.711Z,17.90
2022-10-31T22:47:24.967Z,17.90
2022-10-31T22:52:27.264Z,17.90
2022-10-31T22:57:29.719Z,18.00
2022-10-31T23:02:32.176Z,17.90
2022-10-31T23:07:34.488Z,17.80
2022-10-31T23:12:55.374Z,17.80
2022-10-31T23:17:57.752Z,17.80
2022-10-31T23:23:00.408Z,17.90
2022-10-31T23:28:02.932Z,18.00
2022-10-31T23:33:05.363Z,17.90
2022-10-31T23:38:07.643Z,18.00
2022-10-31T23:43:09.962Z,18.00
2022-10-31T23:48:12.208Z,18.00
2022-10-31T23:53:14.588Z,18.00
2022-10-31T23:58:17.583Z,18.00
